Minneapolis, Minnesota
Traffic Map
Current Weather Conditions
Minneapolis, Minnesota
Overcast
Overcast
-1°
Feels Like: -7°
Wind Chill: -7° Ceiling: 1300
Heat Index: -1° Visibility: 10mi
Dew Point: -3° Wind: 13mph
Humidity: 88% Direction: 330° (NNW)
Pressure: 30.22in Gusts: 0mph
Raw Report DataKMSP 171453Z 33011KT 10SM OVC013 M01/M03 A3022 RMK AO2 SLP245 T10111028 51032
Traffic Incident Summary
Active as of:
Severity:
Category:
InformationThere was an issue retrieving the traffic information for this location. Please try a different location or try again shortly.
Advertisements
At Last! Intellicast now available for iPhone and Android